| time (UTC) | temp F | wind direction | speed knots | gust knots | rain 1hr in | rain 24hr in | rain mn in | humidity % | barometer mb |
| 20260906114511 | 60 | 62 | 0.0 | 0.0 | 0.00 | 0.24 | 0.01 | 97 | 1015.6 |
| 20260906113015 | 59 | 62 | 0.0 | 0.0 | 0.00 | 0.24 | 0.01 | 97 | 1015.6 |
| 20260906111520 | 59 | 62 | 0.0 | 0.0 | 0.00 | 0.24 | 0.01 | 96 | 1015.4 |
| 20260906110032 | 59 | 62 | 0.0 | 0.0 | 0.00 | 0.24 | 0.01 | 96 | 1015.2 |
| 20260906104538 | 60 | 62 | 0.0 | 0.0 | 0.00 | 0.24 | 0.01 | 97 | 1015.0 |
| 20260906103013 | 60 | 62 | 0.0 | 0.0 | 0.00 | 0.24 | 0.01 | 97 | 1014.8 |
| 20260906101528 | 60 | 62 | 0.0 | 0.0 | 0.00 | 0.24 | 0.01 | 97 | 1014.7 |
| 20260906100023 | 60 | 62 | 0.0 | 0.0 | 0.01 | 0.24 | 0.01 | 97 | 1014.6 |
| 20260906094530 | 60 | 62 | 0.0 | 0.0 | 0.01 | 0.24 | 0.01 | 96 | 1014.5 |
| 20260906093032 | 60 | 62 | 0.0 | 0.0 | 0.01 | 0.24 | 0.01 | 97 | 1014.5 |
| 20260906091514 | 60 | 62 | 0.0 | 0.0 | 0.01 | 0.24 | 0.01 | 97 | 1014.6 |
| 20260906090021 | 60 | 62 | 0.9 | 1.7 | 0.00 | 0.23 | 0.00 | 96 | 1014.5 |
| 20260906084528 | 61 | 49 | 0.0 | 0.0 | 0.00 | 0.23 | 0.00 | 97 | 1014.6 |
| 20260906083030 | 60 | 144 | 0.0 | 0.0 | 0.00 | 0.23 | 0.00 | 97 | 1014.6 |
| 20260906081531 | 60 | 144 | 0.0 | 0.0 | 0.00 | 0.23 | 0.00 | 97 | 1014.4 |
| 20260906080016 | 60 | 143 | 0.0 | 0.0 | 0.00 | 0.23 | 0.00 | 97 | 1014.2 |
| 20260906074528 | 60 | 143 | 0.0 | 0.0 | 0.00 | 0.23 | 0.00 | 97 | 1014.0 |
| 20260906073032 | 60 | 147 | 0.0 | 0.0 | 0.00 | 0.23 | 0.00 | 96 | 1014.1 |
| 20260906071503 | 60 | 146 | 0.0 | 0.0 | 0.00 | 0.23 | 0.00 | 96 | 1014.0 |
| 20260906070012 | 60 | 146 | 0.0 | 0.0 | 0.00 | 0.23 | 0.00 | 96 | 1014.2 |
| 20260906064520 | 60 | 146 | 0.0 | 0.0 | 0.00 | 0.24 | 0.00 | 96 | 1014.2 |
| 20260906063023 | 61 | 146 | 0.0 | 0.0 | 0.00 | 0.24 | 0.00 | 96 | 1014.5 |
| 20260906061530 | 61 | 146 | 0.0 | 0.0 | 0.00 | 0.24 | 0.00 | 96 | 1014.7 |
| 20260906060010 | 62 | 274 | 0.0 | 0.0 | 0.00 | 0.24 | 0.00 | 96 | 1014.9 |
| 20260906054514 | 62 | 291 | 0.0 | 0.9 | 0.00 | 0.24 | 0.00 | 96 | 1014.9 |
| 20260906053023 | 62 | 293 | 0.0 | 0.9 | 0.00 | 0.24 | 0.00 | 96 | 1014.7 |
| 20260906051532 | 62 | 131 | 0.0 | 0.9 | 0.00 | 0.24 | 0.00 | 96 | 1014.7 |
| 20260906050029 | 62 | 237 | 0.0 | 0.9 | 0.00 | 0.24 | 0.00 | 96 | 1014.7 |
| 20260906044508 | 62 | 237 | 0.0 | 0.9 | 0.00 | 0.24 | 0.00 | 96 | 1014.7 |
| 20260906043016 | 62 | 134 | 0.0 | 1.7 | 0.00 | 0.24 | 0.00 | 96 | 1014.7 |
| 20260906041525 | 62 | 26 | 0.9 | 1.7 | 0.00 | 0.24 | 0.00 | 96 | 1014.9 |
| 20260906040034 | 62 | 270 | 0.9 | 1.7 | 0.00 | 0.24 | 0.00 | 96 | 1014.9 |
| 20260906034540 | 62 | 257 | 0.0 | 0.9 | 0.00 | 0.24 | 0.24 | 96 | 1015.0 |
| 20260906033010 | 62 | 136 | 0.0 | 1.7 | 0.00 | 0.24 | 0.24 | 96 | 1015.1 |
| 20260906031518 | 63 | 333 | 0.0 | 0.9 | 0.00 | 0.24 | 0.24 | 96 | 1015.4 |
| 20260906030023 | 62 | 21 | 0.0 | 0.9 | 0.00 | 0.24 | 0.24 | 95 | 1015.5 |
| 20260906024530 | 63 | 21 | 0.9 | 0.9 | 0.00 | 0.24 | 0.24 | 96 | 1015.3 |
| 20260906023032 | 63 | 18 | 0.9 | 0.9 | 0.00 | 0.24 | 0.24 | 96 | 1015.2 |
| 20260906021516 | 63 | 18 | 0.0 | 0.0 | 0.00 | 0.24 | 0.24 | 95 | 1014.8 |
| 20260906020018 | 64 | 18 | 0.0 | 0.0 | 0.00 | 0.24 | 0.24 | 95 | 1015.1 |
| 20260906014538 | 64 | 18 | 0.0 | 0.9 | 0.00 | 0.24 | 0.24 | 95 | 1015.0 |
| 20260906013034 | 64 | 13 | 0.0 | 0.0 | 0.00 | 0.24 | 0.24 | 94 | 1014.7 |
| 20260906011535 | 65 | 13 | 0.0 | 0.0 | 0.00 | 0.24 | 0.24 | 94 | 1014.5 |
| 20260906010034 | 65 | 13 | 0.0 | 0.0 | 0.00 | 0.24 | 0.24 | 94 | 1014.2 |
| 20260906004525 | 66 | 13 | 0.0 | 0.0 | 0.00 | 0.24 | 0.24 | 92 | 1014.1 |
| 20260906003027 | 67 | 13 | 0.0 | 0.0 | 0.00 | 0.24 | 0.24 | 92 | 1014.2 |
| 20260906001530 | 68 | 13 | 0.0 | 0.0 | 0.00 | 0.24 | 0.24 | 91 | 1014.1 |
| 20260906000037 | 69 | 13 | 0.0 | 0.0 | 0.00 | 0.24 | 0.24 | 88 | 1014.1 |
| 20260905234531 | 71 | 13 | 0.0 | 0.0 | 0.00 | 0.24 | 0.24 | 86 | 1014.1 |
| 20260905233038 | 73 | 13 | 0.0 | 0.0 | 0.00 | 0.24 | 0.24 | 84 | 1014.0 |
| 20260905231536 | 76 | 13 | 0.0 | 0.0 | 0.00 | 0.24 | 0.24 | 74 | 1013.9 |
| 20260905230031 | 78 | 302 | 0.0 | 1.7 | 0.00 | 0.24 | 0.24 | 75 | 1014.1 |
| 20260905224516 | 80 | 358 | 0.9 | 1.7 | 0.00 | 0.24 | 0.24 | 69 | 1014.3 |
| 20260905223025 | 81 | 318 | 0.0 | 3.5 | 0.00 | 0.24 | 0.24 | 68 | 1014.0 |
| 20260905221530 | 81 | 293 | 0.0 | 3.5 | 0.00 | 0.24 | 0.24 | 68 | 1013.7 |
| 20260905220008 | 81 | 304 | 1.7 | 4.3 | 0.00 | 0.24 | 0.24 | 65 | 1013.5 |
| 20260905214535 | 81 | 304 | 0.9 | 6.1 | 0.00 | 0.24 | 0.24 | 64 | 1013.5 |
| 20260905211529 | 82 | 3 | 1.7 | 5.2 | 0.00 | 0.25 | 0.24 | 61 | 1013.2 |
| 20260905210005 | 83 | 287 | 0.9 | 7.8 | 0.00 | 0.25 | 0.24 | 64 | 1013.2 |
| 20260905204514 | 83 | 311 | 1.7 | 4.3 | 0.00 | 0.25 | 0.24 | 64 | 1013.1 |
| 20260905203016 | 83 | 6 | 1.7 | 4.3 | 0.00 | 0.25 | 0.24 | 64 | 1013.0 |
| 20260905201516 | 82 | 316 | 1.7 | 6.1 | 0.00 | 0.25 | 0.24 | 65 | 1013.0 |
| 20260905200024 | 82 | 299 | 0.9 | 3.5 | 0.00 | 0.25 | 0.24 | 64 | 1013.2 |
| 20260905194515 | 81 | 8 | 0.9 | 9.6 | 0.00 | 0.25 | 0.24 | 66 | 1013.4 |
| 20260905193024 | 82 | 345 | 1.7 | 7.8 | 0.00 | 0.25 | 0.24 | 63 | 1013.4 |
| 20260905191518 | 82 | 26 | 1.7 | 4.3 | 0.00 | 0.25 | 0.24 | 64 | 1013.6 |
| 20260905190019 | 82 | 208 | 0.9 | 5.2 | 0.00 | 0.25 | 0.24 | 64 | 1013.9 |
| 20260905184525 | 81 | 286 | 1.7 | 7.8 | 0.00 | 0.25 | 0.24 | 65 | 1014.0 |
| 20260905183006 | 81 | 267 | 0.9 | 4.3 | 0.00 | 0.25 | 0.24 | 66 | 1014.1 |
| 20260905181516 | 80 | 239 | 1.7 | 7.0 | 0.00 | 0.25 | 0.24 | 67 | 1014.3 |
| 20260905180014 | 79 | 271 | 3.5 | 8.7 | 0.00 | 0.25 | 0.24 | 67 | 1014.7 |
| 20260905174520 | 79 | 304 | 1.7 | 3.5 | 0.00 | 0.25 | 0.24 | 72 | 1015.0 |
| 20260905173026 | 78 | 248 | 1.7 | 5.2 | 0.00 | 0.25 | 0.24 | 77 | 1015.1 |
| 20260905171509 | 77 | 238 | 1.7 | 3.5 | 0.00 | 0.25 | 0.24 | 79 | 1015.3 |
| 20260905170009 | 77 | 264 | 0.9 | 2.6 | 0.00 | 0.25 | 0.24 | 79 | 1015.2 |
| 20260905164524 | 76 | 110 | 1.7 | 4.3 | 0.00 | 0.25 | 0.24 | 80 | 1015.3 |
| 20260905163023 | 74 | 184 | 1.7 | 3.5 | 0.00 | 0.25 | 0.24 | 83 | 1015.5 |
| 20260905161528 | 73 | 151 | 0.9 | 4.3 | 0.00 | 0.25 | 0.24 | 89 | 1015.8 |
| 20260905160022 | 71 | 295 | 0.9 | 4.3 | 0.00 | 0.25 | 0.24 | 91 | 1015.7 |
| 20260905154523 | 71 | 285 | 1.7 | 4.3 | 0.00 | 0.25 | 0.24 | 91 | 1015.2 |
| 20260905153019 | 70 | 259 | 0.9 | 2.6 | 0.00 | 0.25 | 0.24 | 93 | 1015.7 |
| 20260905151535 | 68 | 224 | 0.9 | 2.6 | 0.00 | 0.25 | 0.24 | 94 | 1016.6 |
| 20260905150035 | 68 | 290 | 0.9 | 1.7 | 0.10 | 0.25 | 0.24 | 95 | 1016.8 |
| 20260905144515 | 67 | 58 | 0.0 | 0.9 | 0.16 | 0.25 | 0.24 | 96 | 1016.4 |
| 20260905143013 | 66 | 39 | 0.0 | 1.7 | 0.18 | 0.25 | 0.24 | 96 | 1016.4 |
| 20260905141524 | 65 | 44 | 0.9 | 1.7 | 0.23 | 0.25 | 0.24 | 95 | 1016.5 |
| 20260905140027 | 66 | 32 | 1.7 | 4.3 | 0.13 | 0.15 | 0.14 | 94 | 1017.1 |
| 20260905134542 | 65 | 297 | 4.3 | 10.4 | 0.07 | 0.09 | 0.08 | 97 | 1017.4 |
| 20260905133011 | 64 | 229 | 0.0 | 4.3 | 0.05 | 0.07 | 0.06 | 97 | 1017.2 |
| 20260905131518 | 63 | 257 | 0.9 | 3.5 | 0.00 | 0.02 | 0.01 | 97 | 1016.4 |
| 20260905130025 | 63 | 135 | 0.0 | 0.0 | 0.00 | 0.02 | 0.01 | 96 | 1015.6 |
| 20260905124528 | 63 | 135 | 0.0 | 0.0 | 0.00 | 0.02 | 0.01 | 96 | 1015.4 |
| 20260905123032 | 63 | 139 | 0.0 | 0.0 | 0.00 | 0.02 | 0.01 | 97 | 1015.4 |
| 20260905121527 | 63 | 44 | 0.0 | 0.0 | 0.00 | 0.02 | 0.01 | 97 | 1015.7 |
| 20260905120024 | 63 | 44 | 0.0 | 0.0 | 0.00 | 0.02 | 0.01 | 97 | 1015.6 |